Latest Weather Observations for Renmark Airport

IDS60801

Issued at 7:05 pm CDT Tuesday 21 October 2014 (issued every 30 minutes, with the page automatically refreshed every 10 minutes)

About weather observations | Map of weather stations | Latest weather observations for SA | Other Formats
Station Details ID: 024048 Name: RENMARK AERO Lat: -34.20 Lon: 140.68 Height: 31.5 m
Data from the previous 72 hours. | See also: Recent months at Renmark Airport
Date/Time
CDT
Temp
°C
App
Temp
°C
Dew
Point
Rel
Hum
%
Delta-T
°C
Wind Press
QNH
hPa
Press
MSL
hPa
Rain
since 9 am
mm
Dir
 
Spd
km/h
Gust
km/h
Spd
kts
Gust
kts
21/07:00pm 32.6 28.5 -2.9 10 16.4 E 9 13 5 7 1016.5 1016.4 0.0
21/06:30pm 34.6 30.0 -4.4 8 17.9 SE 11 13 6 7 1016.4 1016.3 0.0
21/06:00pm 35.5 30.8 -5.5 7 18.6 SE 11 15 6 8 1016.5 1016.4 0.0
21/05:30pm 35.8 31.5 -5.3 7 18.7 ESE 9 13 5 7 1016.5 1016.4 0.0
21/05:00pm 36.2 31.1 -5.0 7 18.9 ESE 13 20 7 11 1016.5 1016.4 0.0
21/04:30pm 36.1 31.6 -7.1 6 19.2 E 9 17 5 9 1016.5 1016.4 0.0
21/04:00pm 36.2 30.5 -7.0 6 19.2 ENE 15 24 8 13 1016.8 1016.7 0.0
21/03:30pm 36.7 31.7 -4.7 7 19.2 E 13 22 7 12 1017.1 1017.0 0.0
21/03:00pm 36.5 30.5 -6.8 6 19.4 ENE 17 33 9 18 1017.4 1017.3 0.0
21/02:30pm 37.1 32.1 -4.4 7 19.4 N 13 20 7 11 1018.1 1018.0 0.0
21/02:00pm 37.1 33.1 -2.6 8 19.1 N 9 19 5 10 1018.7 1018.6 0.0
21/01:30pm 36.1 29.9 -3.3 8 18.6 N 20 26 11 14 1019.2 1019.1 0.0
21/01:00pm 35.4 30.3 -2.3 9 18.0 NNE 15 30 8 16 1019.6 1019.5 0.0
21/12:30pm 34.8 30.2 -1.3 10 17.4 NNE 13 24 7 13 1020.2 1020.1 0.0
21/12:00pm 33.3 28.5 0.1 12 16.2 N 15 22 8 12 1020.9 1020.8 0.0
21/11:30am 32.4 28.0 0.5 13 15.6 NE 13 19 7 10 1021.2 1021.1 0.0
21/11:00am 30.4 26.2 1.8 16 14.1 NNE 13 20 7 11 1021.6 1021.5 0.0
21/10:30am 28.6 24.5 2.0 18 13.0 NNE 13 20 7 11 1022.0 1021.9 0.0
21/10:00am 27.3 23.2 2.4 20 12.2 NE 13 19 7 10 1022.2 1022.1 0.0
21/09:30am 25.2 21.5 2.6 23 10.9 ENE 11 17 6 9 1022.1 1022.0 0.0
21/09:00am 23.2 19.1 2.1 25 9.9 E 13 19 7 10 1022.2 1022.1 -
21/08:30am 20.7 16.6 2.5 30 8.5 E 13 17 7 9 1022.4 1022.3 -
21/08:00am 19.1 14.9 1.6 31 7.9 E 13 15 7 8 1022.4 1022.3 -
21/07:30am 17.2 13.8 2.0 36 6.8 E 9 11 5 6 1022.1 1022.0 -
21/07:00am 16.2 13.2 2.2 39 6.3 ESE 7 9 4 5 1021.9 1021.8 -
21/06:30am 13.8 10.5 2.4 46 5.0 ESE 9 11 5 6 1021.7 1021.6 -
21/06:00am 13.8 10.1 2.1 45 5.1 E 11 15 6 8 1021.3 1021.2 -
21/05:30am 14.0 10.7 2.3 45 5.1 E 9 13 5 7 1021.0 1020.9 -
21/05:00am 15.5 12.1 2.0 40 6.0 E 9 13 5 7 1020.9 1020.8 -
21/04:30am 15.4 12.0 1.9 40 5.9 ESE 9 11 5 6 1020.8 1020.7 -
21/04:00am 16.1 13.1 2.2 39 6.2 SE 7 9 4 5 1021.0 1020.9 -
21/03:30am 15.9 13.2 2.7 41 5.9 ESE 6 7 3 4 1021.0 1020.9 -
21/03:00am 16.7 13.4 2.3 38 6.5 ESE 9 11 5 6 1021.1 1021.0 0.0
21/02:30am 16.9 13.6 2.5 38 6.5 ESE 9 11 5 6 1021.3 1021.2 -
21/02:00am 17.1 13.4 2.3 37 6.7 ESE 11 13 6 7 1021.6 1021.5 -
21/01:30am 17.8 14.1 2.2 35 7.1 ESE 11 13 6 7 1021.8 1021.7 -
21/01:00am 19.3 15.2 2.2 32 7.9 E 13 15 7 8 1022.0 1021.9 -
21/12:30am 19.9 15.8 2.3 31 8.1 ESE 13 15 7 8 1022.2 1022.1 -
21/12:00am 20.2 16.5 2.1 30 8.3 ESE 11 13 6 7 1022.3 1022.2 -
 
Date/Time
CDT
Temp
°C
App
Temp
°C
Dew
Point
Rel
Hum
%
Delta-T
°C
Wind Press
QNH
hPa
Press
MSL
hPa
Rain
since 9 am
mm
Dir
 
Spd
km/h
Gust
km/h
Spd
kts
Gust
kts
20/11:30pm 21.2 17.4 2.0 28 8.9 ESE 11 15 6 8 1022.3 1022.2 -
20/11:00pm 21.5 17.9 2.7 29 8.9 ESE 11 13 6 7 1022.4 1022.3 -
20/10:30pm 21.6 18.4 3.3 30 8.7 ESE 9 11 5 6 1022.4 1022.3 -
20/10:00pm 20.8 16.8 3.1 31 8.4 ESE 13 13 7 7 1022.4 1022.3 -
20/09:30pm 22.3 18.8 3.4 29 9.1 ESE 11 11 6 6 1022.4 1022.3 -
20/09:00pm 23.1 20.4 3.6 28 9.4 ESE 7 9 4 5 1022.3 1022.2 0.0
20/08:30pm 24.2 21.5 3.5 26 10.1 ESE 7 9 4 5 1022.2 1022.1 -
20/08:00pm 25.1 21.9 3.1 24 10.7 SE 9 11 5 6 1021.7 1021.6 -
20/07:30pm 25.8 22.6 3.1 23 11.1 SE 9 11 5 6 1021.4 1021.3 -
20/07:00pm 28.3 23.9 2.5 19 12.7 ESE 15 17 8 9 1020.9 1020.8 -
20/06:30pm 29.4 24.2 2.6 18 13.3 SE 19 24 10 13 1020.7 1020.6 -
20/06:00pm 30.2 24.8 2.5 17 13.8 SE 20 24 11 13 1020.5 1020.4 -
20/05:30pm 31.5 26.3 2.7 16 14.5 SE 19 28 10 15 1020.6 1020.5 -
20/05:00pm 32.4 27.6 2.5 15 15.1 ESE 17 24 9 13 1020.5 1020.4 -
20/04:30pm 32.2 27.4 0.3 13 15.5 E 15 24 8 13 1020.6 1020.5 -
20/04:00pm 31.5 26.8 0.8 14 15.0 E 15 22 8 12 1021.0 1020.9 -
20/03:30pm 30.7 26.6 2.0 16 14.2 ESE 13 19 7 10 1021.5 1021.4 -
20/03:00pm 30.5 26.1 2.7 17 13.9 E 15 24 8 13 1021.8 1021.7 -
20/02:30pm 29.5 25.5 2.7 18 13.3 ESE 13 22 7 12 1022.3 1022.2 -
20/01:00pm 26.8 23.4 5.7 26 10.9 SSE 13 24 7 13 1023.8 1023.7 0.0
20/12:30pm 25.7 22.4 6.3 29 10.0 E 13 20 7 11 1024.2 1024.1 0.0
20/12:00pm 24.3 21.5 7.0 33 9.0 ESE 11 19 6 10 1024.6 1024.5 0.0
20/11:30am 23.2 20.1 7.3 36 8.2 E 13 24 7 13 1025.1 1025.0 0.0
20/11:00am 21.9 18.8 7.3 39 7.5 ESE 13 22 7 12 1025.6 1025.5 0.0
20/10:30am 20.8 17.1 7.8 43 6.7 SE 17 26 9 14 1025.8 1025.7 0.0
20/10:00am 19.3 15.2 7.7 47 5.9 ESE 19 26 10 14 1026.0 1025.9 0.0
20/09:30am 18.0 14.2 7.7 51 5.2 ESE 17 24 9 13 1026.1 1026.0 0.0
20/09:00am 17.0 12.9 7.9 55 4.6 ESE 19 24 10 13 1025.9 1025.8 0.0
20/08:30am 15.9 12.3 8.2 60 3.9 ESE 17 19 9 10 1025.8 1025.7 0.0
20/08:00am 14.7 10.4 8.0 64 3.3 SSE 20 28 11 15 1025.6 1025.5 0.0
20/07:30am 13.7 10.4 8.1 69 2.8 S 15 20 8 11 1025.4 1025.3 0.0
20/07:00am 13.0 10.2 8.5 74 2.2 S 13 17 7 9 1024.9 1024.8 0.0
20/06:30am 12.2 9.8 8.5 78 1.8 S 11 15 6 8 1024.5 1024.4 0.0
20/06:00am 13.0 10.2 8.7 75 2.1 SSE 13 17 7 9 1024.1 1024.0 0.0
20/05:30am 13.4 10.7 9.1 75 2.2 SSE 13 17 7 9 1023.8 1023.7 0.0
20/05:00am 14.2 11.2 9.2 72 2.6 S 15 20 8 11 1023.6 1023.5 0.0
20/04:30am 14.9 11.6 9.5 70 2.8 S 17 22 9 12 1023.3 1023.2 0.0
20/04:00am 15.5 12.6 9.6 68 3.1 S 15 20 8 11 1023.2 1023.1 0.0
20/03:30am 16.1 13.4 10.2 68 3.1 S 15 20 8 11 1023.0 1022.9 0.0
20/03:00am 16.5 13.8 10.4 67 3.2 S 15 22 8 12 1022.9 1022.8 0.0
20/02:30am 16.9 14.2 10.3 65 3.5 S 15 20 8 11 1022.9 1022.8 0.0
20/02:00am 17.5 15.2 10.4 63 3.8 S 13 19 7 10 1023.0 1022.9 0.0
20/01:30am 18.2 15.9 10.3 60 4.2 S 13 20 7 11 1022.9 1022.8 0.0
20/01:00am 18.5 15.6 9.8 57 4.6 S 15 20 8 11 1022.8 1022.7 0.0
20/12:30am 19.1 16.5 9.3 53 5.1 SSW 13 19 7 10 1022.7 1022.6 0.0
20/12:00am 19.7 17.3 8.7 49 5.7 S 11 17 6 9 1022.6 1022.5 0.0
 
Date/Time
CDT
Temp
°C
App
Temp
°C
Dew
Point
Rel
Hum
%
Delta-T
°C
Wind Press
QNH
hPa
Press
MSL
hPa
Rain
since 9 am
mm
Dir
 
Spd
km/h
Gust
km/h
Spd
kts
Gust
kts
19/11:30pm 20.5 16.8 7.8 44 6.5 S 17 24 9 13 1022.5 1022.4 0.0
19/11:00pm 21.3 17.7 6.8 39 7.4 SSW 15 20 8 11 1022.5 1022.4 0.0
19/10:30pm 22.0 17.8 5.8 35 8.1 SSW 17 22 9 12 1022.2 1022.1 0.0
19/10:00pm 22.7 18.6 4.2 30 9.1 SSW 15 20 8 11 1022.4 1022.3 0.0
19/09:30pm 23.9 19.0 2.1 24 10.3 S 17 24 9 13 1022.1 1022.0 0.0
19/09:00pm 25.6 19.7 -0.5 18 11.9 S 20 28 11 15 1021.8 1021.7 0.0
19/08:30pm 27.1 20.3 -1.7 15 13.0 S 24 35 13 19 1021.0 1020.9 0.0
19/08:00pm 28.3 22.3 -1.7 14 13.7 S 20 30 11 16 1020.7 1020.6 0.0
19/07:30pm 29.9 23.8 -2.6 12 14.8 S 20 28 11 15 1019.8 1019.7 0.0
19/07:00pm 31.8 25.0 -4.9 9 16.3 S 22 33 12 18 1019.0 1018.9 0.0
19/06:30pm 33.2 28.3 -11.5 5 18.0 SW 9 13 5 7 1018.6 1018.5 0.0
19/06:00pm 34.4 30.0 -10.6 5 18.6 WSW 7 15 4 8 1018.4 1018.3 0.0
19/05:30pm 34.5 28.8 -13.3 4 18.9 SW 13 20 7 11 1018.3 1018.2 0.0
19/05:00pm 35.2 28.7 -12.8 4 19.3 W 17 24 9 13 1018.1 1018.0 0.0
19/04:30pm 34.8 29.8 -13.1 4 19.1 SW 9 20 5 11 1018.1 1018.0 0.0
19/04:00pm 35.2 28.3 -12.8 4 19.3 W 19 24 10 13 1018.1 1018.0 0.0
19/03:30pm 34.9 28.4 -13.0 4 19.1 NNW 17 30 9 16 1018.5 1018.4 0.0
19/03:00pm 35.1 28.6 -12.9 4 19.2 NW 17 22 9 12 1018.8 1018.7 0.0
19/02:30pm 34.3 27.6 -10.7 5 18.5 NNW 19 28 10 15 1019.2 1019.1 0.0
19/02:00pm 34.7 27.8 -13.2 4 19.1 NNW 19 32 10 17 1019.5 1019.4 0.0
19/01:30pm 34.0 26.3 -10.9 5 18.4 WNW 24 41 13 22 1020.0 1019.9 0.0
19/01:00pm 33.2 24.7 -11.5 5 18.0 WNW 28 43 15 23 1020.1 1020.0 0.0
19/12:30pm 33.8 26.1 -11.0 5 18.3 WNW 24 43 13 23 1020.5 1020.4 0.0
19/12:00pm 32.6 24.3 -9.6 6 17.4 WNW 28 43 15 23 1020.9 1020.8 0.0
19/11:30am 32.9 24.2 -9.4 6 17.6 NNW 30 43 16 23 1021.1 1021.0 0.0
19/11:00am 31.6 23.0 -8.4 7 16.8 NW 30 43 16 23 1021.5 1021.4 0.0
19/10:30am 30.5 22.0 -7.4 8 15.9 NNW 30 43 16 23 1021.6 1021.5 0.0
19/10:00am 30.0 21.8 -7.8 8 15.8 NW 28 39 15 21 1021.7 1021.6 0.0
19/09:30am 28.6 19.8 -6.0 10 14.7 NW 32 41 17 22 1021.8 1021.7 0.0
19/09:00am 26.8 20.6 -4.9 12 13.5 N 19 24 10 13 1021.3 1021.2 0.0
19/08:30am 23.8 18.0 -4.4 15 11.8 N 17 24 9 13 1021.5 1021.4 0.0
19/08:00am 21.2 15.8 -4.8 17 10.6 N 15 22 8 12 1021.1 1021.0 0.0
19/07:30am 19.3 14.2 -4.9 19 9.6 N 13 17 7 9 1021.2 1021.1 0.0
19/07:00am 15.5 11.6 -1.5 31 7.0 N 9 11 5 6 1020.9 1020.8 0.0
19/06:30am 13.3 9.1 -0.7 38 5.7 NNE 11 11 6 6 1020.6 1020.5 0.0
19/06:00am 13.1 9.2 -1.2 37 5.8 NNE 9 11 5 6 1020.2 1020.1 0.0
19/05:30am 13.7 9.7 -1.9 34 6.2 NNE 9 11 5 6 1020.1 1020.0 0.0
19/05:00am 14.3 9.8 -3.0 30 6.8 N 11 13 6 7 1020.1 1020.0 0.0
19/04:30am 14.9 11.3 -3.4 28 7.1 WNW 6 9 3 5 1020.1 1020.0 0.0
19/04:00am 18.0 13.4 -4.0 22 8.8 N 11 13 6 7 1019.9 1019.8 0.0
19/03:30am 17.0 12.9 -3.1 25 8.1 N 9 13 5 7 1019.7 1019.6 0.0
19/03:00am 16.9 12.5 -2.7 26 7.9 NNE 11 13 6 7 1019.6 1019.5 0.0
19/02:30am 17.1 13.3 -3.6 24 8.2 N 7 9 4 5 1020.1 1020.0 0.0
19/02:00am 19.3 14.5 -5.6 18 9.8 N 11 17 6 9 1020.4 1020.3 0.0
19/01:30am 20.9 15.4 -5.0 17 10.4 N 15 20 8 11 1020.5 1020.4 0.0
19/01:00am 19.2 14.7 -3.6 21 9.3 N 11 15 6 8 1020.6 1020.5 0.0
19/12:30am 19.7 14.7 -3.9 20 9.6 N 13 15 7 8 1020.7 1020.6 0.0
19/12:00am 20.8 15.5 -3.6 19 10.1 NNE 15 19 8 10 1020.6 1020.5 0.0
 
Date/Time
CDT
Temp
°C
App
Temp
°C
Dew
Point
Rel
Hum
%
Delta-T
°C
Wind Press
QNH
hPa
Press
MSL
hPa
Rain
since 9 am
mm
Dir
 
Spd
km/h
Gust
km/h
Spd
kts
Gust
kts
18/11:30pm 19.8 14.7 -1.9 23 9.2 NNE 15 17 8 9 1020.6 1020.5 0.0
18/11:00pm 19.1 14.6 -0.3 27 8.5 NE 13 15 7 8 1020.7 1020.6 0.0
18/10:30pm 19.4 15.3 -0.1 27 8.5 NE 11 13 6 7 1020.7 1020.6 0.0
18/10:00pm 19.7 15.7 0.7 28 8.5 NE 11 13 6 7 1020.6 1020.5 0.0
18/09:30pm 20.2 15.8 0.6 27 8.8 NE 13 15 7 8 1020.8 1020.7 0.0
18/09:00pm 22.3 18.3 0.8 24 9.8 NE 11 13 6 7 1020.7 1020.6 0.0
18/08:30pm 22.6 18.5 -0.2 22 10.2 NE 11 13 6 7 1020.4 1020.3 0.0
18/08:00pm 23.7 19.5 -0.6 20 11.0 NE 11 13 6 7 1020.0 1019.9 0.0
18/07:30pm 26.0 21.8 -0.9 17 12.2 NE 11 15 6 8 1019.7 1019.6 0.0

Other Formats:

Comma delimited format used in spreadsheet applications
http://www.bom.gov.au/fwo/IDS60801/IDS60801.95687.axf

JavaScript Object Notation format (JSON) in row-major order
http://www.bom.gov.au/fwo/IDS60801/IDS60801.95687.json